sensor_id;sensor_type;location;lat;lon;timestamp;temperature;humidity
16392;DHT22;8305;-33.882;151.134;2022-10-16T00:01:58;22.40;99.90
16392;DHT22;8305;-33.882;151.134;2022-10-16T00:04:31;22.40;99.90
16392;DHT22;8305;-33.882;151.134;2022-10-16T00:07:02;22.50;99.90
16392;DHT22;8305;-33.882;151.134;2022-10-16T00:09:33;22.50;99.90
16392;DHT22;8305;-33.882;151.134;2022-10-16T00:12:03;22.70;99.90
16392;DHT22;8305;-33.882;151.134;2022-10-16T00:14:35;22.80;99.90
16392;DHT22;8305;-33.882;151.134;2022-10-16T00:17:08;22.80;99.90
16392;DHT22;8305;-33.882;151.134;2022-10-16T00:19:41;22.90;99.90
16392;DHT22;8305;-33.882;151.134;2022-10-16T00:22:11;23.00;99.90
16392;DHT22;8305;-33.882;151.134;2022-10-16T00:24:42;22.90;99.90
16392;DHT22;8305;-33.882;151.134;2022-10-16T00:27:13;23.00;99.90
16392;DHT22;8305;-33.882;151.134;2022-10-16T00:29:44;23.10;99.90
16392;DHT22;8305;-33.882;151.134;2022-10-16T00:32:15;23.20;99.90
16392;DHT22;8305;-33.882;151.134;2022-10-16T00:34:48;23.20;99.90
16392;DHT22;8305;-33.882;151.134;2022-10-16T00:37:18;23.30;99.90
16392;DHT22;8305;-33.882;151.134;2022-10-16T00:39:49;23.20;99.90
16392;DHT22;8305;-33.882;151.134;2022-10-16T00:42:20;23.20;99.90
16392;DHT22;8305;-33.882;151.134;2022-10-16T00:44:52;23.30;99.90
16392;DHT22;8305;-33.882;151.134;2022-10-16T00:47:27;23.40;99.90
16392;DHT22;8305;-33.882;151.134;2022-10-16T00:50:04;23.40;99.90
16392;DHT22;8305;-33.882;151.134;2022-10-16T00:52:38;23.50;99.90
16392;DHT22;8305;-33.882;151.134;2022-10-16T00:55:10;23.70;99.90
16392;DHT22;8305;-33.882;151.134;2022-10-16T00:57:41;23.60;99.90
16392;DHT22;8305;-33.882;151.134;2022-10-16T01:00:15;23.50;99.90
16392;DHT22;8305;-33.882;151.134;2022-10-16T01:02:51;23.70;99.90
16392;DHT22;8305;-33.882;151.134;2022-10-16T01:05:27;23.80;99.90
16392;DHT22;8305;-33.882;151.134;2022-10-16T01:08:12;23.70;99.90
16392;DHT22;8305;-33.882;151.134;2022-10-16T01:10:49;23.40;99.90
16392;DHT22;8305;-33.882;151.134;2022-10-16T01:13:26;23.10;99.90
16392;DHT22;8305;-33.882;151.134;2022-10-16T01:16:03;22.90;99.90
16392;DHT22;8305;-33.882;151.134;2022-10-16T01:18:39;22.70;99.90
16392;DHT22;8305;-33.882;151.134;2022-10-16T01:21:18;22.50;99.90
16392;DHT22;8305;-33.882;151.134;2022-10-16T01:24:01;22.50;99.90
16392;DHT22;8305;-33.882;151.134;2022-10-16T01:26:42;22.50;99.90
16392;DHT22;8305;-33.882;151.134;2022-10-16T01:29:23;22.50;99.90
16392;DHT22;8305;-33.882;151.134;2022-10-16T01:32:02;22.30;99.90
16392;DHT22;8305;-33.882;151.134;2022-10-16T01:34:40;22.20;99.90
16392;DHT22;8305;-33.882;151.134;2022-10-16T01:37:15;22.00;99.90
16392;DHT22;8305;-33.882;151.134;2022-10-16T01:39:50;21.90;99.90
16392;DHT22;8305;-33.882;151.134;2022-10-16T01:42:26;21.80;99.90
16392;DHT22;8305;-33.882;151.134;2022-10-16T01:45:01;21.80;99.90
16392;DHT22;8305;-33.882;151.134;2022-10-16T01:47:35;22.00;99.90
16392;DHT22;8305;-33.882;151.134;2022-10-16T01:50:07;22.10;99.90
16392;DHT22;8305;-33.882;151.134;2022-10-16T01:52:43;22.10;99.90
16392;DHT22;8305;-33.882;151.134;2022-10-16T01:55:27;21.90;99.90
16392;DHT22;8305;-33.882;151.134;2022-10-16T01:58:00;21.90;99.90
16392;DHT22;8305;-33.882;151.134;2022-10-16T02:00:35;22.00;99.90
16392;DHT22;8305;-33.882;151.134;2022-10-16T02:03:08;22.10;99.90
16392;DHT22;8305;-33.882;151.134;2022-10-16T02:05:42;22.10;99.90
16392;DHT22;8305;-33.882;151.134;2022-10-16T02:08:15;22.10;99.90
16392;DHT22;8305;-33.882;151.134;2022-10-16T02:10:46;22.20;99.90
16392;DHT22;8305;-33.882;151.134;2022-10-16T02:13:22;22.30;99.90
16392;DHT22;8305;-33.882;151.134;2022-10-16T02:15:56;22.30;99.90
16392;DHT22;8305;-33.882;151.134;2022-10-16T02:18:28;22.20;99.90
16392;DHT22;8305;-33.882;151.134;2022-10-16T02:21:02;22.40;99.90
16392;DHT22;8305;-33.882;151.134;2022-10-16T02:23:37;22.40;99.90
16392;DHT22;8305;-33.882;151.134;2022-10-16T02:26:15;22.40;99.90
16392;DHT22;8305;-33.882;151.134;2022-10-16T02:28:51;22.50;99.90
16392;DHT22;8305;-33.882;151.134;2022-10-16T02:31:27;22.60;99.90
16392;DHT22;8305;-33.882;151.134;2022-10-16T02:34:03;22.50;99.90
16392;DHT22;8305;-33.882;151.134;2022-10-16T02:36:36;22.60;99.90
16392;DHT22;8305;-33.882;151.134;2022-10-16T02:39:07;22.50;99.90
16392;DHT22;8305;-33.882;151.134;2022-10-16T02:41:39;22.20;99.90
16392;DHT22;8305;-33.882;151.134;2022-10-16T02:44:10;22.10;99.90
16392;DHT22;8305;-33.882;151.134;2022-10-16T02:46:42;22.20;99.90
16392;DHT22;8305;-33.882;151.134;2022-10-16T02:49:13;22.30;99.90
16392;DHT22;8305;-33.882;151.134;2022-10-16T02:51:45;22.40;99.90
16392;DHT22;8305;-33.882;151.134;2022-10-16T02:54:16;22.60;99.90
16392;DHT22;8305;-33.882;151.134;2022-10-16T02:56:47;22.60;99.90
16392;DHT22;8305;-33.882;151.134;2022-10-16T02:59:19;22.30;99.90
16392;DHT22;8305;-33.882;151.134;2022-10-16T03:01:52;22.20;99.90
16392;DHT22;8305;-33.882;151.134;2022-10-16T03:04:23;22.30;99.90
16392;DHT22;8305;-33.882;151.134;2022-10-16T03:06:54;22.40;99.90
16392;DHT22;8305;-33.882;151.134;2022-10-16T03:09:24;22.60;99.90
16392;DHT22;8305;-33.882;151.134;2022-10-16T03:11:55;22.60;99.90
16392;DHT22;8305;-33.882;151.134;2022-10-16T03:14:26;22.50;99.90
16392;DHT22;8305;-33.882;151.134;2022-10-16T03:16:59;22.20;99.90
16392;DHT22;8305;-33.882;151.134;2022-10-16T03:19:30;22.00;99.90
16392;DHT22;8305;-33.882;151.134;2022-10-16T03:22:04;22.10;99.90
16392;DHT22;8305;-33.882;151.134;2022-10-16T03:24:35;21.90;99.90
16392;DHT22;8305;-33.882;151.134;2022-10-16T03:27:06;21.90;99.90
16392;DHT22;8305;-33.882;151.134;2022-10-16T03:29:37;21.90;99.90
16392;DHT22;8305;-33.882;151.134;2022-10-16T03:32:09;22.00;99.90
16392;DHT22;8305;-33.882;151.134;2022-10-16T03:34:40;22.20;99.90
16392;DHT22;8305;-33.882;151.134;2022-10-16T03:37:11;22.10;99.90
16392;DHT22;8305;-33.882;151.134;2022-10-16T03:39:42;22.10;99.90
16392;DHT22;8305;-33.882;151.134;2022-10-16T03:42:13;22.20;99.90
16392;DHT22;8305;-33.882;151.134;2022-10-16T03:44:44;22.30;99.90
16392;DHT22;8305;-33.882;151.134;2022-10-16T03:47:17;22.10;99.90
16392;DHT22;8305;-33.882;151.134;2022-10-16T03:49:49;22.10;99.90
16392;DHT22;8305;-33.882;151.134;2022-10-16T03:52:20;22.10;99.90
16392;DHT22;8305;-33.882;151.134;2022-10-16T03:54:51;21.90;99.90
16392;DHT22;8305;-33.882;151.134;2022-10-16T03:57:22;21.90;99.90
16392;DHT22;8305;-33.882;151.134;2022-10-16T03:59:53;21.80;99.90
16392;DHT22;8305;-33.882;151.134;2022-10-16T04:02:26;21.90;99.90
16392;DHT22;8305;-33.882;151.134;2022-10-16T04:04:57;21.90;99.90
16392;DHT22;8305;-33.882;151.134;2022-10-16T04:07:28;21.90;99.90
16392;DHT22;8305;-33.882;151.134;2022-10-16T04:09:59;22.00;99.90
16392;DHT22;8305;-33.882;151.134;2022-10-16T04:12:30;22.00;99.90
16392;DHT22;8305;-33.882;151.134;2022-10-16T04:15:01;21.90;99.90
16392;DHT22;8305;-33.882;151.134;2022-10-16T04:17:34;21.70;99.90
16392;DHT22;8305;-33.882;151.134;2022-10-16T04:20:06;21.80;99.90
16392;DHT22;8305;-33.882;151.134;2022-10-16T04:22:37;21.80;99.90
16392;DHT22;8305;-33.882;151.134;2022-10-16T04:25:09;21.80;99.90
16392;DHT22;8305;-33.882;151.134;2022-10-16T04:27:41;21.80;99.90
16392;DHT22;8305;-33.882;151.134;2022-10-16T04:30:12;21.90;99.90
16392;DHT22;8305;-33.882;151.134;2022-10-16T04:32:48;22.00;99.90
16392;DHT22;8305;-33.882;151.134;2022-10-16T04:35:20;22.00;99.90
16392;DHT22;8305;-33.882;151.134;2022-10-16T04:37:51;21.70;99.90
16392;DHT22;8305;-33.882;151.134;2022-10-16T04:40:22;21.60;99.90
16392;DHT22;8305;-33.882;151.134;2022-10-16T04:42:53;21.50;99.90
16392;DHT22;8305;-33.882;151.134;2022-10-16T04:45:24;21.40;99.90
16392;DHT22;8305;-33.882;151.134;2022-10-16T04:48:00;21.40;99.90
16392;DHT22;8305;-33.882;151.134;2022-10-16T04:50:31;21.40;99.90
16392;DHT22;8305;-33.882;151.134;2022-10-16T04:53:02;21.50;99.90
16392;DHT22;8305;-33.882;151.134;2022-10-16T04:55:33;21.50;99.90
16392;DHT22;8305;-33.882;151.134;2022-10-16T04:58:04;21.60;99.90
16392;DHT22;8305;-33.882;151.134;2022-10-16T05:00:35;21.60;99.90
16392;DHT22;8305;-33.882;151.134;2022-10-16T05:03:09;21.60;99.90
16392;DHT22;8305;-33.882;151.134;2022-10-16T05:05:43;21.50;99.90
16392;DHT22;8305;-33.882;151.134;2022-10-16T05:08:15;21.50;99.90
16392;DHT22;8305;-33.882;151.134;2022-10-16T05:10:46;21.50;99.90
16392;DHT22;8305;-33.882;151.134;2022-10-16T05:13:17;21.40;99.90
16392;DHT22;8305;-33.882;151.134;2022-10-16T05:15:49;21.40;99.90
16392;DHT22;8305;-33.882;151.134;2022-10-16T05:18:21;21.40;99.90
16392;DHT22;8305;-33.882;151.134;2022-10-16T05:20:52;21.40;99.90
16392;DHT22;8305;-33.882;151.134;2022-10-16T05:23:23;21.40;99.90
16392;DHT22;8305;-33.882;151.134;2022-10-16T05:25:55;21.50;99.90
16392;DHT22;8305;-33.882;151.134;2022-10-16T05:28:27;21.50;99.90
16392;DHT22;8305;-33.882;151.134;2022-10-16T05:30:58;21.40;99.90
16392;DHT22;8305;-33.882;151.134;2022-10-16T05:33:31;21.40;99.90
16392;DHT22;8305;-33.882;151.134;2022-10-16T05:36:04;21.30;99.90
16392;DHT22;8305;-33.882;151.134;2022-10-16T05:38:35;21.20;99.90
16392;DHT22;8305;-33.882;151.134;2022-10-16T05:41:06;21.20;99.90
16392;DHT22;8305;-33.882;151.134;2022-10-16T05:43:37;21.10;99.90
16392;DHT22;8305;-33.882;151.134;2022-10-16T05:46:08;21.00;99.90
16392;DHT22;8305;-33.882;151.134;2022-10-16T05:48:41;21.00;99.90
16392;DHT22;8305;-33.882;151.134;2022-10-16T05:51:13;21.00;99.90
16392;DHT22;8305;-33.882;151.134;2022-10-16T05:53:44;21.00;99.90
16392;DHT22;8305;-33.882;151.134;2022-10-16T05:56:16;21.00;99.90
16392;DHT22;8305;-33.882;151.134;2022-10-16T05:58:47;21.10;99.90
16392;DHT22;8305;-33.882;151.134;2022-10-16T06:01:18;21.00;99.90
16392;DHT22;8305;-33.882;151.134;2022-10-16T06:03:54;21.00;99.90
16392;DHT22;8305;-33.882;151.134;2022-10-16T06:06:26;20.90;99.90
16392;DHT22;8305;-33.882;151.134;2022-10-16T06:08:58;20.70;99.90
16392;DHT22;8305;-33.882;151.134;2022-10-16T06:11:30;20.70;99.90
16392;DHT22;8305;-33.882;151.134;2022-10-16T06:14:02;20.60;99.90
16392;DHT22;8305;-33.882;151.134;2022-10-16T06:16:35;20.70;99.90
16392;DHT22;8305;-33.882;151.134;2022-10-16T06:19:08;20.70;99.90
16392;DHT22;8305;-33.882;151.134;2022-10-16T06:21:39;20.60;99.90
16392;DHT22;8305;-33.882;151.134;2022-10-16T06:24:10;20.60;99.90
16392;DHT22;8305;-33.882;151.134;2022-10-16T06:26:41;20.50;99.90
16392;DHT22;8305;-33.882;151.134;2022-10-16T06:29:12;20.50;99.90
16392;DHT22;8305;-33.882;151.134;2022-10-16T06:31:43;20.50;99.90
16392;DHT22;8305;-33.882;151.134;2022-10-16T06:34:16;20.50;99.90
16392;DHT22;8305;-33.882;151.134;2022-10-16T06:36:47;20.40;99.90
16392;DHT22;8305;-33.882;151.134;2022-10-16T06:39:18;20.40;99.90
16392;DHT22;8305;-33.882;151.134;2022-10-16T06:41:49;20.40;99.90
16392;DHT22;8305;-33.882;151.134;2022-10-16T06:44:20;20.30;99.90
16392;DHT22;8305;-33.882;151.134;2022-10-16T06:46:51;20.10;99.90
16392;DHT22;8305;-33.882;151.134;2022-10-16T06:49:24;20.10;99.90
16392;DHT22;8305;-33.882;151.134;2022-10-16T06:51:56;20.10;99.90
16392;DHT22;8305;-33.882;151.134;2022-10-16T06:54:27;20.10;99.90
16392;DHT22;8305;-33.882;151.134;2022-10-16T06:56:58;20.10;99.90
16392;DHT22;8305;-33.882;151.134;2022-10-16T06:59:29;20.00;99.90
16392;DHT22;8305;-33.882;151.134;2022-10-16T07:02:00;20.00;99.90
16392;DHT22;8305;-33.882;151.134;2022-10-16T07:04:33;19.90;99.90
16392;DHT22;8305;-33.882;151.134;2022-10-16T07:07:06;19.80;99.90
16392;DHT22;8305;-33.882;151.134;2022-10-16T07:09:36;19.80;99.90
16392;DHT22;8305;-33.882;151.134;2022-10-16T07:12:07;19.70;99.90
16392;DHT22;8305;-33.882;151.134;2022-10-16T07:14:38;19.70;99.90
16392;DHT22;8305;-33.882;151.134;2022-10-16T07:17:09;19.60;99.90
16392;DHT22;8305;-33.882;151.134;2022-10-16T07:19:42;19.70;99.90
16392;DHT22;8305;-33.882;151.134;2022-10-16T07:22:13;19.70;99.90
16392;DHT22;8305;-33.882;151.134;2022-10-16T07:24:44;19.60;99.90
16392;DHT22;8305;-33.882;151.134;2022-10-16T07:27:15;19.50;99.90
16392;DHT22;8305;-33.882;151.134;2022-10-16T07:29:46;19.60;99.90
16392;DHT22;8305;-33.882;151.134;2022-10-16T07:32:17;19.40;99.90
16392;DHT22;8305;-33.882;151.134;2022-10-16T07:34:50;19.40;99.90
16392;DHT22;8305;-33.882;151.134;2022-10-16T07:37:21;19.40;99.90
16392;DHT22;8305;-33.882;151.134;2022-10-16T07:39:52;19.40;99.90
16392;DHT22;8305;-33.882;151.134;2022-10-16T07:42:23;19.40;99.90
16392;DHT22;8305;-33.882;151.134;2022-10-16T07:44:54;19.30;99.90
16392;DHT22;8305;-33.882;151.134;2022-10-16T07:47:25;19.30;99.90
16392;DHT22;8305;-33.882;151.134;2022-10-16T07:49:58;19.30;99.90
16392;DHT22;8305;-33.882;151.134;2022-10-16T07:52:29;19.20;99.90
16392;DHT22;8305;-33.882;151.134;2022-10-16T07:55:00;19.20;99.90
16392;DHT22;8305;-33.882;151.134;2022-10-16T07:57:31;19.10;99.90
16392;DHT22;8305;-33.882;151.134;2022-10-16T08:00:02;19.10;99.90
16392;DHT22;8305;-33.882;151.134;2022-10-16T08:02:33;19.00;99.90
16392;DHT22;8305;-33.882;151.134;2022-10-16T08:05:07;19.00;99.90
16392;DHT22;8305;-33.882;151.134;2022-10-16T08:07:38;18.90;99.90
16392;DHT22;8305;-33.882;151.134;2022-10-16T08:10:12;18.90;99.90
16392;DHT22;8305;-33.882;151.134;2022-10-16T08:12:46;18.80;99.90
16392;DHT22;8305;-33.882;151.134;2022-10-16T08:15:18;18.80;99.90
16392;DHT22;8305;-33.882;151.134;2022-10-16T08:17:56;18.80;99.90
16392;DHT22;8305;-33.882;151.134;2022-10-16T08:20:31;18.70;99.90
16392;DHT22;8305;-33.882;151.134;2022-10-16T08:23:08;18.70;99.90
16392;DHT22;8305;-33.882;151.134;2022-10-16T08:25:40;18.60;99.90
16392;DHT22;8305;-33.882;151.134;2022-10-16T08:28:12;18.60;99.90
16392;DHT22;8305;-33.882;151.134;2022-10-16T08:30:43;18.50;99.90
16392;DHT22;8305;-33.882;151.134;2022-10-16T08:33:14;18.50;99.90
16392;DHT22;8305;-33.882;151.134;2022-10-16T08:35:54;18.50;99.90
16392;DHT22;8305;-33.882;151.134;2022-10-16T08:38:25;18.50;99.90
16392;DHT22;8305;-33.882;151.134;2022-10-16T08:41:01;18.50;99.90
16392;DHT22;8305;-33.882;151.134;2022-10-16T08:44:03;18.50;99.90
16392;DHT22;8305;-33.882;151.134;2022-10-16T08:46:43;18.40;99.90
16392;DHT22;8305;-33.882;151.134;2022-10-16T08:49:23;18.40;99.90
16392;DHT22;8305;-33.882;151.134;2022-10-16T08:51:57;18.40;99.90
16392;DHT22;8305;-33.882;151.134;2022-10-16T08:54:31;18.40;99.90
16392;DHT22;8305;-33.882;151.134;2022-10-16T08:57:11;18.40;99.90
16392;DHT22;8305;-33.882;151.134;2022-10-16T08:59:42;18.40;99.90
16392;DHT22;8305;-33.882;151.134;2022-10-16T09:02:32;18.40;99.90
16392;DHT22;8305;-33.882;151.134;2022-10-16T09:05:25;18.40;99.90
16392;DHT22;8305;-33.882;151.134;2022-10-16T09:08:10;18.30;99.90
16392;DHT22;8305;-33.882;151.134;2022-10-16T09:10:49;18.30;99.90
16392;DHT22;8305;-33.882;151.134;2022-10-16T09:13:29;18.40;99.90
16392;DHT22;8305;-33.882;151.134;2022-10-16T09:16:10;18.40;99.90
16392;DHT22;8305;-33.882;151.134;2022-10-16T09:18:49;18.30;99.90
16392;DHT22;8305;-33.882;151.134;2022-10-16T09:21:25;18.30;99.90
16392;DHT22;8305;-33.882;151.134;2022-10-16T09:24:00;18.30;99.90
16392;DHT22;8305;-33.882;151.134;2022-10-16T09:26:36;18.20;99.90
16392;DHT22;8305;-33.882;151.134;2022-10-16T09:29:08;18.20;99.90
16392;DHT22;8305;-33.882;151.134;2022-10-16T09:31:39;18.20;99.90
16392;DHT22;8305;-33.882;151.134;2022-10-16T09:34:16;18.10;99.90
16392;DHT22;8305;-33.882;151.134;2022-10-16T09:36:48;18.10;99.90
16392;DHT22;8305;-33.882;151.134;2022-10-16T09:39:22;18.10;99.90
16392;DHT22;8305;-33.882;151.134;2022-10-16T09:41:57;18.10;99.90
16392;DHT22;8305;-33.882;151.134;2022-10-16T09:44:29;18.10;99.90
16392;DHT22;8305;-33.882;151.134;2022-10-16T09:47:04;18.10;99.90
16392;DHT22;8305;-33.882;151.134;2022-10-16T09:49:35;18.10;99.90
16392;DHT22;8305;-33.882;151.134;2022-10-16T09:52:11;18.10;99.90
16392;DHT22;8305;-33.882;151.134;2022-10-16T09:54:53;18.10;99.90
16392;DHT22;8305;-33.882;151.134;2022-10-16T09:57:25;18.10;99.90
16392;DHT22;8305;-33.882;151.134;2022-10-16T09:59:56;18.20;99.90
16392;DHT22;8305;-33.882;151.134;2022-10-16T10:02:31;18.10;99.90
16392;DHT22;8305;-33.882;151.134;2022-10-16T10:05:06;18.10;99.90
16392;DHT22;8305;-33.882;151.134;2022-10-16T10:07:52;18.10;99.90
16392;DHT22;8305;-33.882;151.134;2022-10-16T10:10:26;18.10;99.90
16392;DHT22;8305;-33.882;151.134;2022-10-16T10:12:58;18.10;99.90
16392;DHT22;8305;-33.882;151.134;2022-10-16T10:15:33;18.00;99.90
16392;DHT22;8305;-33.882;151.134;2022-10-16T10:18:18;18.00;99.90
16392;DHT22;8305;-33.882;151.134;2022-10-16T10:20:59;18.00;99.90
16392;DHT22;8305;-33.882;151.134;2022-10-16T10:23:31;18.00;99.90
16392;DHT22;8305;-33.882;151.134;2022-10-16T10:26:07;17.90;99.90
16392;DHT22;8305;-33.882;151.134;2022-10-16T10:28:56;17.90;99.90
16392;DHT22;8305;-33.882;151.134;2022-10-16T10:31:32;17.90;99.90
16392;DHT22;8305;-33.882;151.134;2022-10-16T10:34:17;17.90;99.90
16392;DHT22;8305;-33.882;151.134;2022-10-16T10:36:53;17.90;99.90
16392;DHT22;8305;-33.882;151.134;2022-10-16T10:39:30;17.80;99.90
16392;DHT22;8305;-33.882;151.134;2022-10-16T10:42:20;17.80;99.90
16392;DHT22;8305;-33.882;151.134;2022-10-16T10:45:16;17.80;99.90
16392;DHT22;8305;-33.882;151.134;2022-10-16T10:48:05;17.80;99.90
16392;DHT22;8305;-33.882;151.134;2022-10-16T10:50:45;17.80;99.90
16392;DHT22;8305;-33.882;151.134;2022-10-16T10:53:30;17.80;99.90
16392;DHT22;8305;-33.882;151.134;2022-10-16T10:56:20;17.80;99.90
16392;DHT22;8305;-33.882;151.134;2022-10-16T11:02:17;17.90;99.90
16392;DHT22;8305;-33.882;151.134;2022-10-16T11:05:22;17.90;99.90
16392;DHT22;8305;-33.882;151.134;2022-10-16T11:07:59;17.90;99.90
16392;DHT22;8305;-33.882;151.134;2022-10-16T11:10:38;17.90;99.90
16392;DHT22;8305;-33.882;151.134;2022-10-16T11:13:23;17.90;99.90
16392;DHT22;8305;-33.882;151.134;2022-10-16T11:16:00;17.90;99.90
16392;DHT22;8305;-33.882;151.134;2022-10-16T11:18:44;17.90;99.90
16392;DHT22;8305;-33.882;151.134;2022-10-16T11:21:19;17.90;99.90
16392;DHT22;8305;-33.882;151.134;2022-10-16T11:23:57;17.90;99.90
16392;DHT22;8305;-33.882;151.134;2022-10-16T11:26:32;17.90;99.90
16392;DHT22;8305;-33.882;151.134;2022-10-16T11:29:05;17.90;99.90
16392;DHT22;8305;-33.882;151.134;2022-10-16T11:31:43;17.80;99.90
16392;DHT22;8305;-33.882;151.134;2022-10-16T11:34:24;17.80;99.90
16392;DHT22;8305;-33.882;151.134;2022-10-16T11:36:58;17.90;99.90
16392;DHT22;8305;-33.882;151.134;2022-10-16T11:39:32;17.90;99.90
16392;DHT22;8305;-33.882;151.134;2022-10-16T11:42:07;17.80;99.90
16392;DHT22;8305;-33.882;151.134;2022-10-16T11:44:51;17.90;99.90
16392;DHT22;8305;-33.882;151.134;2022-10-16T11:47:33;17.80;99.90
16392;DHT22;8305;-33.882;151.134;2022-10-16T11:50:13;17.80;99.90
16392;DHT22;8305;-33.882;151.134;2022-10-16T11:52:55;17.80;99.90
16392;DHT22;8305;-33.882;151.134;2022-10-16T11:55:32;17.70;99.90
16392;DHT22;8305;-33.882;151.134;2022-10-16T11:58:07;17.70;99.90
16392;DHT22;8305;-33.882;151.134;2022-10-16T12:00:43;17.70;99.90
16392;DHT22;8305;-33.882;151.134;2022-10-16T12:03:20;17.70;99.90
16392;DHT22;8305;-33.882;151.134;2022-10-16T12:06:02;17.70;99.90
16392;DHT22;8305;-33.882;151.134;2022-10-16T12:08:37;17.70;99.90
16392;DHT22;8305;-33.882;151.134;2022-10-16T12:11:19;17.70;99.90
16392;DHT22;8305;-33.882;151.134;2022-10-16T12:13:51;17.70;99.90
16392;DHT22;8305;-33.882;151.134;2022-10-16T12:16:24;17.60;99.90
16392;DHT22;8305;-33.882;151.134;2022-10-16T12:19:11;17.70;99.90
16392;DHT22;8305;-33.882;151.134;2022-10-16T12:21:45;17.60;99.90
16392;DHT22;8305;-33.882;151.134;2022-10-16T12:24:36;17.60;99.90
16392;DHT22;8305;-33.882;151.134;2022-10-16T12:27:23;17.50;99.90
16392;DHT22;8305;-33.882;151.134;2022-10-16T12:29:57;17.60;99.90
16392;DHT22;8305;-33.882;151.134;2022-10-16T12:32:32;17.50;99.90
16392;DHT22;8305;-33.882;151.134;2022-10-16T12:35:04;17.50;99.90
16392;DHT22;8305;-33.882;151.134;2022-10-16T12:37:39;17.40;99.90
16392;DHT22;8305;-33.882;151.134;2022-10-16T12:40:15;17.40;99.90
16392;DHT22;8305;-33.882;151.134;2022-10-16T12:42:47;17.30;99.90
16392;DHT22;8305;-33.882;151.134;2022-10-16T12:45:29;17.30;99.90
16392;DHT22;8305;-33.882;151.134;2022-10-16T12:48:02;17.30;99.90
16392;DHT22;8305;-33.882;151.134;2022-10-16T12:50:35;17.30;99.90
16392;DHT22;8305;-33.882;151.134;2022-10-16T12:53:19;17.30;99.90
16392;DHT22;8305;-33.882;151.134;2022-10-16T12:55:56;17.20;99.90
16392;DHT22;8305;-33.882;151.134;2022-10-16T13:01:34;17.10;99.90
16392;DHT22;8305;-33.882;151.134;2022-10-16T13:04:19;17.10;99.90
16392;DHT22;8305;-33.882;151.134;2022-10-16T13:06:55;17.10;99.90
16392;DHT22;8305;-33.882;151.134;2022-10-16T13:09:42;17.00;99.90
16392;DHT22;8305;-33.882;151.134;2022-10-16T13:12:36;17.00;99.90
16392;DHT22;8305;-33.882;151.134;2022-10-16T13:15:34;17.00;99.90
16392;DHT22;8305;-33.882;151.134;2022-10-16T13:18:15;17.00;99.90
16392;DHT22;8305;-33.882;151.134;2022-10-16T13:21:08;17.00;99.90
16392;DHT22;8305;-33.882;151.134;2022-10-16T13:23:45;17.00;99.90
16392;DHT22;8305;-33.882;151.134;2022-10-16T13:26:27;17.00;99.90
16392;DHT22;8305;-33.882;151.134;2022-10-16T13:29:02;17.00;99.90
16392;DHT22;8305;-33.882;151.134;2022-10-16T13:31:33;17.00;99.90
16392;DHT22;8305;-33.882;151.134;2022-10-16T13:34:04;17.00;99.90
16392;DHT22;8305;-33.882;151.134;2022-10-16T13:36:42;17.00;99.90
16392;DHT22;8305;-33.882;151.134;2022-10-16T13:39:15;17.00;99.90
16392;DHT22;8305;-33.882;151.134;2022-10-16T13:42:03;17.00;99.90
16392;DHT22;8305;-33.882;151.134;2022-10-16T13:44:38;17.00;99.90
16392;DHT22;8305;-33.882;151.134;2022-10-16T13:47:17;17.00;99.90
16392;DHT22;8305;-33.882;151.134;2022-10-16T13:50:00;17.00;99.90
16392;DHT22;8305;-33.882;151.134;2022-10-16T13:52:31;17.00;99.90
16392;DHT22;8305;-33.882;151.134;2022-10-16T13:55:03;17.00;99.90
16392;DHT22;8305;-33.882;151.134;2022-10-16T13:57:35;17.00;99.90
16392;DHT22;8305;-33.882;151.134;2022-10-16T14:00:19;17.00;99.90
16392;DHT22;8305;-33.882;151.134;2022-10-16T14:03:00;17.00;99.90
16392;DHT22;8305;-33.882;151.134;2022-10-16T14:05:32;17.00;99.90
16392;DHT22;8305;-33.882;151.134;2022-10-16T14:08:03;17.00;99.90
16392;DHT22;8305;-33.882;151.134;2022-10-16T14:10:34;17.00;99.90
16392;DHT22;8305;-33.882;151.134;2022-10-16T14:13:08;17.00;99.90
16392;DHT22;8305;-33.882;151.134;2022-10-16T14:15:49;17.00;99.90
16392;DHT22;8305;-33.882;151.134;2022-10-16T14:18:23;17.10;99.90
16392;DHT22;8305;-33.882;151.134;2022-10-16T14:20:54;17.10;99.90
16392;DHT22;8305;-33.882;151.134;2022-10-16T14:23:30;17.10;99.90
16392;DHT22;8305;-33.882;151.134;2022-10-16T14:26:17;17.00;99.90
16392;DHT22;8305;-33.882;151.134;2022-10-16T14:29:03;17.00;99.90
16392;DHT22;8305;-33.882;151.134;2022-10-16T14:31:35;17.00;99.90
16392;DHT22;8305;-33.882;151.134;2022-10-16T14:34:24;17.00;99.90
16392;DHT22;8305;-33.882;151.134;2022-10-16T14:36:56;17.00;99.90
16392;DHT22;8305;-33.882;151.134;2022-10-16T14:39:27;17.10;99.90
16392;DHT22;8305;-33.882;151.134;2022-10-16T14:41:59;17.10;99.90
16392;DHT22;8305;-33.882;151.134;2022-10-16T14:44:33;17.10;99.90
16392;DHT22;8305;-33.882;151.134;2022-10-16T14:47:14;17.10;99.90
16392;DHT22;8305;-33.882;151.134;2022-10-16T14:49:49;17.10;99.90
16392;DHT22;8305;-33.882;151.134;2022-10-16T14:52:20;17.10;99.90
16392;DHT22;8305;-33.882;151.134;2022-10-16T14:54:51;17.10;99.90
16392;DHT22;8305;-33.882;151.134;2022-10-16T14:57:26;17.10;99.90
16392;DHT22;8305;-33.882;151.134;2022-10-16T15:00:00;17.10;99.90
16392;DHT22;8305;-33.882;151.134;2022-10-16T15:02:31;17.10;99.90
16392;DHT22;8305;-33.882;151.134;2022-10-16T15:05:10;17.10;99.90
16392;DHT22;8305;-33.882;151.134;2022-10-16T15:07:42;17.10;99.90
16392;DHT22;8305;-33.882;151.134;2022-10-16T15:10:13;17.20;99.90
16392;DHT22;8305;-33.882;151.134;2022-10-16T15:12:44;17.10;99.90
16392;DHT22;8305;-33.882;151.134;2022-10-16T15:15:32;17.10;99.90
16392;DHT22;8305;-33.882;151.134;2022-10-16T15:18:04;17.20;99.90
16392;DHT22;8305;-33.882;151.134;2022-10-16T15:20:37;17.10;99.90
16392;DHT22;8305;-33.882;151.134;2022-10-16T15:23:13;17.20;99.90
16392;DHT22;8305;-33.882;151.134;2022-10-16T15:25:45;17.20;99.90
16392;DHT22;8305;-33.882;151.134;2022-10-16T15:28:17;17.10;99.90
16392;DHT22;8305;-33.882;151.134;2022-10-16T15:30:51;17.10;99.90
16392;DHT22;8305;-33.882;151.134;2022-10-16T15:33:23;17.10;99.90
16392;DHT22;8305;-33.882;151.134;2022-10-16T15:35:55;17.10;99.90
16392;DHT22;8305;-33.882;151.134;2022-10-16T15:38:26;17.10;99.90
16392;DHT22;8305;-33.882;151.134;2022-10-16T15:40:58;17.10;99.90
16392;DHT22;8305;-33.882;151.134;2022-10-16T15:43:29;17.00;99.90
16392;DHT22;8305;-33.882;151.134;2022-10-16T15:46:04;17.00;99.90
16392;DHT22;8305;-33.882;151.134;2022-10-16T15:48:36;17.00;99.90
16392;DHT22;8305;-33.882;151.134;2022-10-16T15:51:07;16.90;99.90
16392;DHT22;8305;-33.882;151.134;2022-10-16T15:53:38;16.90;99.90
16392;DHT22;8305;-33.882;151.134;2022-10-16T15:56:10;16.80;99.90